createdAt,value
2023-03-29T00:03:04.225Z,99959.55
2023-03-29T00:05:57.628Z,99960.18
2023-03-29T00:08:51.074Z,99961.73
2023-03-29T00:11:41.897Z,99961.60
2023-03-29T00:14:32.460Z,99962.52
2023-03-29T00:17:23.223Z,99964.11
2023-03-29T00:20:14.456Z,99968.34
2023-03-29T00:23:05.055Z,99962.81
2023-03-29T00:25:56.478Z,99963.70
2023-03-29T00:28:47.491Z,99963.64
2023-03-29T00:31:38.037Z,99963.30
2023-03-29T00:34:31.027Z,99962.34
2023-03-29T00:37:22.683Z,99958.39
2023-03-29T00:40:15.484Z,99962.66
2023-03-29T00:43:06.505Z,99966.42
2023-03-29T00:45:57.220Z,99961.54
2023-03-29T00:48:47.759Z,99963.46
2023-03-29T00:51:38.927Z,99960.02
2023-03-29T00:54:31.036Z,99961.39
2023-03-29T00:57:21.701Z,99963.33
2023-03-29T01:00:15.478Z,99964.17
2023-03-29T01:03:09.194Z,99960.09
2023-03-29T01:06:01.405Z,99958.42
2023-03-29T01:08:54.087Z,99957.61
2023-03-29T01:11:47.120Z,99948.04
2023-03-29T01:14:39.576Z,99945.36
2023-03-29T01:17:31.772Z,99944.58
2023-03-29T01:20:24.934Z,99941.27
2023-03-29T01:23:27.421Z,99940.54
2023-03-29T01:26:20.547Z,99935.41
2023-03-29T01:29:12.687Z,99932.88
2023-03-29T01:32:06.086Z,99932.18
2023-03-29T01:34:58.750Z,99930.55
2023-03-29T01:37:51.754Z,99934.05
2023-03-29T01:40:42.529Z,99933.42
2023-03-29T01:43:34.861Z,99937.23
2023-03-29T01:46:28.662Z,99938.15
2023-03-29T01:49:23.685Z,99936.79
2023-03-29T01:52:17.006Z,99934.23
2023-03-29T01:55:13.132Z,99937.64
2023-03-29T01:58:05.769Z,99938.23
2023-03-29T02:00:56.573Z,99937.84
2023-03-29T02:03:50.847Z,99939.81
2023-03-29T02:06:41.511Z,99935.77
2023-03-29T02:09:32.577Z,99937.67
2023-03-29T02:12:24.254Z,99936.11
2023-03-29T02:15:16.562Z,99934.64
2023-03-29T02:18:07.600Z,99933.38
2023-03-29T02:20:59.038Z,99932.09
2023-03-29T02:23:50.054Z,99936.47
2023-03-29T02:26:40.884Z,99933.99
2023-03-29T02:29:31.689Z,99930.31
2023-03-29T02:32:23.051Z,99926.85
2023-03-29T02:35:15.301Z,99926.70
2023-03-29T02:38:07.164Z,99924.86
2023-03-29T02:40:58.101Z,99925.62
2023-03-29T02:43:48.773Z,99924.52
2023-03-29T02:46:39.898Z,99924.14
2023-03-29T02:49:30.393Z,99927.64
2023-03-29T02:52:22.982Z,99924.50
2023-03-29T02:55:15.841Z,99927.60
2023-03-29T02:58:08.539Z,99923.81
2023-03-29T03:01:00.498Z,99924.36
2023-03-29T03:03:52.209Z,99924.05
2023-03-29T03:06:43.138Z,99926.69
2023-03-29T03:09:34.365Z,99925.14
2023-03-29T03:12:25.333Z,99920.69
2023-03-29T03:15:16.191Z,99925.20
2023-03-29T03:18:07.132Z,99924.89
2023-03-29T03:21:02.006Z,99926.02
2023-03-29T03:23:53.558Z,99925.38
2023-03-29T03:26:46.458Z,99921.98
2023-03-29T03:29:38.645Z,99924.00
2023-03-29T03:36:02.897Z,99931.23
2023-03-29T03:38:54.358Z,99939.65
2023-03-29T03:41:44.974Z,99944.38
2023-03-29T03:44:35.605Z,99947.55
2023-03-29T03:47:38.498Z,99950.40
2023-03-29T03:50:41.717Z,99949.81
2023-03-29T03:53:32.499Z,99946.81
2023-03-29T03:56:35.204Z,99945.98
2023-03-29T03:59:28.836Z,99953.36
2023-03-29T04:02:24.335Z,99950.71
2023-03-29T04:05:15.069Z,99948.28
2023-03-29T04:08:06.782Z,99950.85
2023-03-29T04:11:20.175Z,99953.86
2023-03-29T04:14:11.334Z,99953.54
2023-03-29T04:17:22.314Z,99958.78
2023-03-29T04:20:42.064Z,99955.13
2023-03-29T04:23:33.786Z,99958.29
2023-03-29T04:26:24.577Z,99954.43
2023-03-29T04:29:20.971Z,99953.93
2023-03-29T04:32:15.985Z,99954.02
2023-03-29T04:35:28.943Z,99953.42
2023-03-29T04:38:23.568Z,99951.97
2023-03-29T04:41:15.368Z,99951.38
2023-03-29T04:44:15.922Z,99949.07
2023-03-29T04:47:06.547Z,99949.77
2023-03-29T04:49:57.253Z,99949.69
2023-03-29T04:53:01.031Z,99946.36
2023-03-29T04:55:52.634Z,99950.75
2023-03-29T04:58:55.969Z,99949.15
2023-03-29T05:01:47.038Z,99946.24
2023-03-29T05:04:37.924Z,99938.04
2023-03-29T05:07:35.678Z,99931.59
2023-03-29T05:10:26.497Z,99936.73
2023-03-29T05:13:18.004Z,99940.38
2023-03-29T05:16:11.388Z,99943.33
2023-03-29T05:19:02.241Z,99944.66
2023-03-29T05:21:53.190Z,99944.09
2023-03-29T05:24:45.563Z,99944.02
2023-03-29T05:27:40.453Z,99946.50
2023-03-29T05:30:32.487Z,99945.66
2023-03-29T05:33:39.091Z,99949.95
2023-03-29T05:36:29.927Z,99950.30
2023-03-29T05:39:21.159Z,99953.25
2023-03-29T05:42:13.844Z,99953.77
2023-03-29T05:45:14.976Z,99955.95
2023-03-29T05:48:05.597Z,99960.67
2023-03-29T05:50:56.429Z,99963.38
2023-03-29T05:53:46.969Z,99964.71
2023-03-29T05:56:37.764Z,99966.94
2023-03-29T05:59:29.759Z,99958.34
2023-03-29T06:02:20.366Z,99959.29
2023-03-29T06:05:14.894Z,99947.30
2023-03-29T06:08:22.380Z,99940.17
2023-03-29T06:11:27.939Z,99943.11
2023-03-29T06:14:33.873Z,99941.50
2023-03-29T06:17:45.981Z,99931.65
2023-03-29T06:20:36.642Z,99927.77
2023-03-29T06:23:33.000Z,99926.71
2023-03-29T06:26:24.072Z,99918.66
2023-03-29T06:29:15.000Z,99911.32
2023-03-29T06:32:05.605Z,99908.30
2023-03-29T06:35:15.073Z,99909.26
2023-03-29T06:38:12.543Z,99911.02
2023-03-29T06:41:29.582Z,99912.89
2023-03-29T06:44:40.193Z,99911.73
2023-03-29T06:47:36.149Z,99916.94
2023-03-29T06:50:27.188Z,99923.09
2023-03-29T06:53:28.725Z,99916.70
2023-03-29T06:56:23.942Z,99917.95
2023-03-29T06:59:24.414Z,99914.19
2023-03-29T07:02:37.756Z,99913.55
2023-03-29T07:05:36.348Z,99917.80
2023-03-29T07:08:31.554Z,99921.71
2023-03-29T07:11:25.656Z,99924.98
2023-03-29T07:14:19.767Z,99925.16
2023-03-29T07:17:10.458Z,99926.33
2023-03-29T07:20:08.368Z,99934.06
2023-03-29T07:23:09.632Z,99929.79
2023-03-29T07:26:01.489Z,99932.89
2023-03-29T07:28:53.492Z,99933.97
2023-03-29T07:31:46.109Z,99936.14
2023-03-29T07:34:59.661Z,99936.21
2023-03-29T07:37:58.525Z,99936.29
2023-03-29T07:40:49.687Z,99936.05
2023-03-29T07:43:57.813Z,99936.99
2023-03-29T07:46:48.434Z,99937.56
2023-03-29T07:49:39.566Z,99936.36
2023-03-29T07:52:30.434Z,99933.58
2023-03-29T07:55:22.300Z,99935.26
2023-03-29T07:58:25.609Z,99931.37
2023-03-29T08:01:18.903Z,99927.29
2023-03-29T08:04:30.519Z,99914.56
2023-03-29T08:07:39.640Z,99909.27
2023-03-29T08:10:40.541Z,99900.38
2023-03-29T08:13:51.521Z,99888.65
2023-03-29T08:16:52.583Z,99885.48
2023-03-29T08:19:51.180Z,99879.25
2023-03-29T08:22:48.854Z,99878.18
2023-03-29T08:26:16.084Z,99878.27
2023-03-29T08:29:08.537Z,99876.52
2023-03-29T08:32:08.899Z,99870.68
2023-03-29T08:34:59.588Z,99867.53
2023-03-29T08:37:56.010Z,99862.45
2023-03-29T08:40:50.699Z,99864.66
2023-03-29T08:43:56.447Z,99860.58
2023-03-29T08:47:05.341Z,99860.57
2023-03-29T08:50:00.370Z,99859.75
2023-03-29T08:52:58.606Z,99854.13
2023-03-29T08:56:16.534Z,99850.95
2023-03-29T08:59:15.899Z,99850.16
2023-03-29T09:02:07.175Z,99847.85
2023-03-29T09:05:01.814Z,99849.15
2023-03-29T09:08:03.144Z,99849.10
2023-03-29T09:11:03.776Z,99840.30
2023-03-29T09:13:58.998Z,99836.85
2023-03-29T09:16:52.622Z,99837.22
2023-03-29T09:19:46.142Z,99835.66
2023-03-29T09:22:41.166Z,99837.30
2023-03-29T09:25:53.400Z,99834.54
2023-03-29T09:28:48.792Z,99834.77
2023-03-29T09:31:39.553Z,99832.23
2023-03-29T09:34:31.927Z,99831.92
2023-03-29T09:37:29.942Z,99828.86
2023-03-29T09:40:21.823Z,99823.95
2023-03-29T09:43:22.983Z,99825.13
2023-03-29T09:46:16.892Z,99827.70
2023-03-29T09:49:17.143Z,99828.13
2023-03-29T09:52:10.953Z,99827.77
2023-03-29T09:55:02.092Z,99825.63
2023-03-29T09:58:14.332Z,99821.23
2023-03-29T10:01:10.456Z,99825.20
2023-03-29T10:04:02.121Z,99824.48
2023-03-29T10:06:53.218Z,99822.48
2023-03-29T10:09:44.259Z,99821.27
2023-03-29T10:12:39.953Z,99816.71
2023-03-29T10:15:31.616Z,99812.29
2023-03-29T10:18:22.083Z,99810.06
2023-03-29T10:21:15.578Z,99807.32
2023-03-29T10:24:06.719Z,99806.59
2023-03-29T10:26:58.702Z,99811.92
2023-03-29T10:29:49.052Z,99811.80
2023-03-29T10:32:39.856Z,99805.27
2023-03-29T10:35:33.890Z,99802.98
2023-03-29T10:38:27.995Z,99795.71
2023-03-29T10:41:18.677Z,99793.24
2023-03-29T10:44:11.239Z,99791.39
2023-03-29T10:47:16.160Z,99785.61
2023-03-29T10:50:07.929Z,99791.21
2023-03-29T10:52:58.350Z,99784.52
2023-03-29T10:55:51.054Z,99779.09
2023-03-29T10:58:48.812Z,99772.34
2023-03-29T11:01:43.576Z,99770.65
2023-03-29T11:04:37.758Z,99773.38
2023-03-29T11:07:33.462Z,99772.88
2023-03-29T11:10:32.365Z,99770.02
2023-03-29T11:13:25.803Z,99766.11
2023-03-29T11:16:22.758Z,99756.71
2023-03-29T11:19:25.204Z,99756.30
2023-03-29T11:22:18.173Z,99757.66
2023-03-29T11:25:15.689Z,99752.36
2023-03-29T11:28:10.089Z,99747.88
2023-03-29T11:31:03.517Z,99745.95
2023-03-29T11:34:01.727Z,99751.95
2023-03-29T11:36:54.113Z,99742.16
2023-03-29T11:39:47.552Z,99736.88
2023-03-29T11:42:40.005Z,99731.11
2023-03-29T11:45:34.228Z,99727.64
2023-03-29T11:48:26.866Z,99725.59
2023-03-29T11:51:19.723Z,99720.34
2023-03-29T11:54:16.577Z,99719.06
2023-03-29T11:57:08.784Z,99721.05
2023-03-29T12:00:00.488Z,99713.72
2023-03-29T12:02:53.274Z,99709.89
2023-03-29T12:05:45.431Z,99707.15
2023-03-29T12:08:36.331Z,99701.13
2023-03-29T12:11:30.183Z,99694.16
2023-03-29T12:14:23.704Z,99701.96
2023-03-29T12:17:18.222Z,99694.40
2023-03-29T12:20:16.710Z,99698.41
2023-03-29T12:23:07.538Z,99698.44
2023-03-29T12:26:02.423Z,99697.88
2023-03-29T12:29:05.609Z,99696.80
2023-03-29T12:31:59.303Z,99687.05
2023-03-29T12:35:03.421Z,99676.59
2023-03-29T12:38:16.859Z,99666.41
2023-03-29T12:41:26.726Z,99667.15
2023-03-29T12:44:36.291Z,99669.23
2023-03-29T12:47:45.623Z,99664.87
2023-03-29T12:50:38.093Z,99663.94
2023-03-29T12:53:29.692Z,99655.80
2023-03-29T12:56:23.729Z,99658.46
2023-03-29T12:59:27.414Z,99653.52
2023-03-29T13:02:39.385Z,99652.52
2023-03-29T13:05:32.445Z,99650.65
2023-03-29T13:08:34.093Z,99650.08
2023-03-29T13:11:29.376Z,99645.92
2023-03-29T13:14:20.588Z,99640.71
2023-03-29T13:17:18.780Z,99640.70
2023-03-29T13:20:15.145Z,99636.41
2023-03-29T13:23:16.935Z,99635.61
2023-03-29T13:26:19.812Z,99649.17
2023-03-29T13:29:38.306Z,99631.05
2023-03-29T13:32:40.729Z,99629.98
2023-03-29T13:35:35.468Z,99628.23
2023-03-29T13:38:28.758Z,99626.98
2023-03-29T13:41:32.636Z,99623.02
2023-03-29T13:44:36.134Z,99613.55
2023-03-29T13:47:43.229Z,99611.60
2023-03-29T13:50:39.984Z,99615.16
2023-03-29T13:53:32.366Z,99614.37
2023-03-29T13:56:25.803Z,99611.64
2023-03-29T13:59:19.998Z,99605.44
2023-03-29T14:02:15.398Z,99606.67
2023-03-29T14:05:06.637Z,99600.02
2023-03-29T14:07:57.355Z,99597.06
2023-03-29T14:10:48.535Z,99594.47
2023-03-29T14:13:39.530Z,99598.73
2023-03-29T14:16:31.501Z,99601.56
2023-03-29T14:19:26.016Z,99600.69
2023-03-29T14:22:19.085Z,99596.96
2023-03-29T14:25:17.237Z,99599.11
2023-03-29T14:28:21.920Z,99593.79
2023-03-29T14:31:23.123Z,99592.77
2023-03-29T14:34:16.722Z,99589.77
2023-03-29T14:37:09.164Z,99587.08
2023-03-29T14:40:00.686Z,99585.61
2023-03-29T14:42:51.659Z,99589.01
2023-03-29T14:45:42.044Z,99592.74
2023-03-29T14:48:35.453Z,99589.38
2023-03-29T14:51:30.542Z,99586.94
2023-03-29T14:54:22.592Z,99586.86
2023-03-29T14:57:18.611Z,99584.56
2023-03-29T15:00:21.301Z,99580.25
2023-03-29T15:03:16.459Z,99580.73
2023-03-29T15:06:08.305Z,99580.87
2023-03-29T15:09:07.993Z,99573.83
2023-03-29T15:12:01.363Z,99578.73
2023-03-29T15:14:53.063Z,99577.48
2023-03-29T15:17:51.868Z,99578.90
2023-03-29T15:20:46.172Z,99578.11
2023-03-29T15:23:40.539Z,99577.21
2023-03-29T15:26:33.916Z,99571.18
2023-03-29T15:29:34.012Z,99568.73
2023-03-29T15:32:25.335Z,99564.23
2023-03-29T15:35:25.807Z,99565.21
2023-03-29T15:38:16.481Z,99560.20
2023-03-29T15:41:08.285Z,99561.40
2023-03-29T15:43:58.896Z,99556.52
2023-03-29T15:46:49.936Z,99557.13
2023-03-29T15:49:40.666Z,99550.92
2023-03-29T15:52:32.156Z,99549.66
2023-03-29T15:55:23.084Z,99543.77
2023-03-29T15:58:15.743Z,99537.13
2023-03-29T16:01:13.391Z,99540.23
2023-03-29T16:04:05.053Z,99538.85
2023-03-29T16:06:56.756Z,99535.98
2023-03-29T16:09:50.888Z,99530.88
2023-03-29T16:12:41.662Z,99533.13
2023-03-29T16:15:33.579Z,99527.84
2023-03-29T16:18:24.520Z,99525.48
2023-03-29T16:21:20.307Z,99522.03
2023-03-29T16:24:13.408Z,99529.20
2023-03-29T16:27:12.432Z,99530.92
2023-03-29T16:30:06.261Z,99525.16
2023-03-29T16:32:57.207Z,99521.27
2023-03-29T16:35:48.388Z,99517.53
2023-03-29T16:38:39.563Z,99517.42
2023-03-29T16:41:31.678Z,99513.39
2023-03-29T16:44:25.923Z,99512.23
2023-03-29T16:47:17.753Z,99506.73
2023-03-29T16:50:12.241Z,99506.89
2023-03-29T16:53:03.283Z,99497.45
2023-03-29T16:55:53.871Z,99497.01
2023-03-29T16:58:44.739Z,99500.03
2023-03-29T17:01:36.342Z,99501.17
2023-03-29T17:04:27.293Z,99500.52
2023-03-29T17:07:17.892Z,99501.01
2023-03-29T17:10:09.857Z,99505.52
2023-03-29T17:13:00.927Z,99503.96
2023-03-29T17:15:52.509Z,99505.73
2023-03-29T17:18:43.622Z,99508.95
2023-03-29T17:21:34.396Z,99512.63
2023-03-29T17:24:24.939Z,99514.64
2023-03-29T17:27:15.481Z,99516.35
2023-03-29T17:30:06.335Z,99520.11
2023-03-29T17:32:57.684Z,99521.57
2023-03-29T17:35:48.637Z,99518.98
2023-03-29T17:38:39.327Z,99515.45
2023-03-29T17:41:31.335Z,99515.83
2023-03-29T17:44:22.242Z,99505.73
2023-03-29T17:47:15.680Z,99510.36
2023-03-29T17:50:06.849Z,99516.77
2023-03-29T17:52:57.546Z,99518.23
2023-03-29T17:55:48.167Z,99514.17
2023-03-29T17:58:41.328Z,99514.42
2023-03-29T18:01:33.523Z,99518.66
2023-03-29T18:08:11.365Z,99513.45
2023-03-29T18:11:09.921Z,99508.23
2023-03-29T18:14:01.802Z,99513.23
2023-03-29T18:16:52.251Z,99517.71
2023-03-29T18:19:42.742Z,99523.96
2023-03-29T18:22:34.280Z,99531.91
2023-03-29T18:25:25.250Z,99536.16
2023-03-29T18:28:15.939Z,99532.77
2023-03-29T18:31:07.057Z,99532.34
2023-03-29T18:33:57.803Z,99531.00
2023-03-29T18:36:51.157Z,99520.52
2023-03-29T18:39:43.048Z,99521.89
2023-03-29T18:42:33.852Z,99526.08
2023-03-29T18:45:24.558Z,99526.45
2023-03-29T18:48:15.644Z,99529.77
2023-03-29T18:51:07.499Z,99531.55
2023-03-29T18:53:58.467Z,99525.86
2023-03-29T18:56:48.901Z,99519.48
2023-03-29T18:59:39.629Z,99513.98
2023-03-29T19:02:30.809Z,99516.19
2023-03-29T19:05:21.642Z,99514.62
2023-03-29T19:08:13.368Z,99515.17
2023-03-29T19:11:04.972Z,99515.30
2023-03-29T19:13:55.213Z,99511.66
2023-03-29T19:16:45.929Z,99511.84
2023-03-29T19:19:37.810Z,99508.40
2023-03-29T19:22:28.340Z,99507.64
2023-03-29T19:25:19.137Z,99500.52
2023-03-29T19:28:10.485Z,99496.84
2023-03-29T19:31:02.289Z,99492.70
2023-03-29T19:33:53.563Z,99492.06
2023-03-29T19:36:44.139Z,99487.86
2023-03-29T19:39:35.708Z,99483.61
2023-03-29T19:42:26.692Z,99478.41
2023-03-29T19:45:23.528Z,99483.77
2023-03-29T19:48:21.773Z,99478.71
2023-03-29T19:51:16.841Z,99477.08
2023-03-29T19:54:07.991Z,99475.27
2023-03-29T19:56:58.683Z,99471.01
2023-03-29T19:59:49.141Z,99470.57
2023-03-29T20:02:40.089Z,99470.41
2023-03-29T20:05:30.381Z,99460.89
2023-03-29T20:08:21.113Z,99454.31
2023-03-29T20:11:11.802Z,99450.80
2023-03-29T20:14:02.445Z,99453.70
2023-03-29T20:16:54.160Z,99447.09
2023-03-29T20:19:45.085Z,99449.66
2023-03-29T20:22:38.096Z,99451.17
2023-03-29T20:25:28.753Z,99445.05
2023-03-29T20:28:19.783Z,99445.23
2023-03-29T20:31:11.839Z,99438.56
2023-03-29T20:34:02.637Z,99438.11
2023-03-29T20:36:55.222Z,99436.52
2023-03-29T20:39:46.301Z,99431.69
2023-03-29T20:42:39.394Z,99428.60
2023-03-29T20:45:33.220Z,99427.45
2023-03-29T20:48:31.345Z,99425.67
2023-03-29T20:51:21.575Z,99424.73
2023-03-29T20:54:12.047Z,99424.50
2023-03-29T20:57:02.411Z,99423.35
2023-03-29T20:59:53.327Z,99417.86
2023-03-29T21:02:44.263Z,99421.08
2023-03-29T21:05:34.926Z,99421.86
2023-03-29T21:08:28.899Z,99430.53
2023-03-29T21:11:19.945Z,99423.23
2023-03-29T21:14:10.605Z,99421.90
2023-03-29T21:17:01.519Z,99423.58
2023-03-29T21:19:53.213Z,99419.15
2023-03-29T21:22:44.146Z,99419.05
2023-03-29T21:25:34.770Z,99422.44
2023-03-29T21:28:25.616Z,99421.96
2023-03-29T21:31:16.142Z,99419.05
2023-03-29T21:34:06.512Z,99420.02
2023-03-29T21:36:57.278Z,99423.85
2023-03-29T21:39:48.050Z,99429.63
2023-03-29T21:42:38.871Z,99424.94
2023-03-29T21:45:30.069Z,99424.37
2023-03-29T21:48:20.739Z,99423.09
2023-03-29T21:51:11.665Z,99420.61
2023-03-29T21:54:02.357Z,99422.41
2023-03-29T21:56:53.016Z,99419.55
2023-03-29T21:59:43.583Z,99417.70
2023-03-29T22:02:34.209Z,99419.13
2023-03-29T22:05:26.131Z,99421.88
2023-03-29T22:08:19.081Z,99423.73
2023-03-29T22:11:10.993Z,99419.73
2023-03-29T22:14:01.934Z,99410.41
2023-03-29T22:16:52.757Z,99412.65
2023-03-29T22:19:43.753Z,99412.28
2023-03-29T22:22:35.153Z,99408.05
2023-03-29T22:25:25.713Z,99404.59
2023-03-29T22:28:16.395Z,99399.50
2023-03-29T22:31:07.599Z,99395.94
2023-03-29T22:34:00.717Z,99391.94
2023-03-29T22:36:51.804Z,99387.88
2023-03-29T22:39:42.396Z,99384.38
2023-03-29T22:42:32.804Z,99383.64
2023-03-29T22:45:23.682Z,99377.50
2023-03-29T22:48:14.389Z,99371.55
2023-03-29T22:51:05.689Z,99369.60
2023-03-29T22:53:56.639Z,99367.02
2023-03-29T22:56:47.159Z,99364.92
2023-03-29T22:59:37.671Z,99370.38
2023-03-29T23:02:28.546Z,99369.38
2023-03-29T23:05:19.601Z,99366.10
2023-03-29T23:08:10.421Z,99360.25
2023-03-29T23:11:01.439Z,99362.50
2023-03-29T23:13:52.664Z,99356.23
2023-03-29T23:16:43.564Z,99357.03
2023-03-29T23:19:34.069Z,99354.45
2023-03-29T23:22:24.445Z,99358.09
2023-03-29T23:25:15.068Z,99353.95
2023-03-29T23:28:06.598Z,99353.05
2023-03-29T23:31:02.912Z,99349.27
2023-03-29T23:33:54.140Z,99351.41
2023-03-29T23:36:44.600Z,99350.62
2023-03-29T23:39:35.844Z,99349.06
2023-03-29T23:42:26.712Z,99346.70
2023-03-29T23:45:18.911Z,99349.02
2023-03-29T23:48:09.794Z,99349.13
2023-03-29T23:51:01.353Z,99343.23
2023-03-29T23:53:52.374Z,99339.43
2023-03-29T23:56:43.107Z,99339.93
2023-03-29T23:59:37.749Z,99339.45
